Stations météo

réclame
Mon MeteoGroup
Dravagen, Suède (2317): Température de l'air & dewpoint: 15.06.2018 17:00:00 - 21.06.2018 17:00:00 (CEST)Dravagen, Suède (2317): Vitesse du vent & gusts: 15.06.2018 17:00:00 - 21.06.2018 17:00:00 (CEST)Dravagen, Suède (2317): Direction du vent: 15.06.2018 17:00:00 - 21.06.2018 17:00:00 (CEST)Dravagen, Suède (2317): visibility: 15.06.2018 17:00:00 - 21.06.2018 17:00:00 (CEST)Dravagen, Suède (2317): Quantités de précipitations: 15.06.2018 17:00:00 - 21.06.2018 17:00:00 (CEST)
Date & Time tt [°C] td [°C] ff [km/h] ff [knt] fx [km/h] fx [knt] dd vv [km] rr [mm]
21.06.2018 17:00:00 13,3 1,6 12 6 42 23 N 47 0,0
21.06.2018 16:00:00 9,0 5,0 10 5 42 23 NNE 27 0,1
21.06.2018 15:00:00 10,9 4,6 13 7 27 15 E 50 0,0
21.06.2018 14:00:00 10,2 4,3 8 4 24 13 E 50 0,0
21.06.2018 13:00:00 10,7 4,6 12 6 24 13 ENE 43 0,0
21.06.2018 12:00:00 9,8 3,5 12 7 22 12 ENE 37 0,0
21.06.2018 11:00:00 8,1 3,0 8 5 18 10 NNE 48 0,0
21.06.2018 10:00:00 7,2 3,8 0 0 11 6 N 41 0,1
21.06.2018 09:00:00 5,9 2,9 0 0 16 8 N 18 0,1
21.06.2018 08:00:00 5,7 2,9 6 3 16 8 WNW 16 0,1
21.06.2018 07:00:00 5,7 2,9 3 1 11 6 WSW 25 0,1
21.06.2018 06:00:00 5,8 2,6 3 2 11 6 WNW 38 0,0
21.06.2018 05:00:00 6,0 2,3 0 0 17 9 N 49 0,0
21.06.2018 04:00:00 6,2 2,5 7 4 17 9 WSW 50 0,0
21.06.2018 03:00:00 6,4 2,5 3 1 9 5 SE 50 0,0
21.06.2018 02:00:00 6,5 3,1 4 2 11 6 WNW 50 0,0
21.06.2018 01:00:00 7,2 2,9 4 2 11 6 E 50 0,0
21.06.2018 00:00:00 7,4 3,8 4 2 17 9 SE 50 0,0
20.06.2018 23:00:00 7,5 3,7 4 2 17 9 E 50 0,3
20.06.2018 22:00:00 8,6 4,0 7 4 27 15 E 19 0,1
20.06.2018 21:00:00 10,8 1,6 13 7 27 15 NE 50 0,0
20.06.2018 20:00:00 12,2 0,6 5 3 17 9 E 36 0,0
20.06.2018 19:00:00 14,0 -0,5 6 3 22 12 NW 50 0,0
20.06.2018 18:00:00 14,5 -0,4 12 6 24 13 WNW 50 0,0
20.06.2018 17:00:00 14,9 -0,4 9 5 27 15 SW 49 0,0
20.06.2018 16:00:00 15,3 0,3 8 4 24 13 SSW 47 0,0
20.06.2018 15:00:00 13,6 -0,1 10 5 33 18 W 50 0,0
20.06.2018 14:00:00 14,4 -0,5 14 8 33 18 W 50 0,0
20.06.2018 13:00:00 13,6 0,6 11 6 31 17 W 40 0,0
20.06.2018 12:00:00 13,9 -1,7 15 8 31 17 WSW 45 0,0
20.06.2018 11:00:00 12,5 -1,4 11 6 30 16 WSW 49 0,0
20.06.2018 10:00:00 12,4 -0,8 13 7 36 20 WSW 39 0,0
20.06.2018 09:00:00 10,0 -1,7 13 7 36 20 W 46 0,0
20.06.2018 08:00:00 10,0 -1,4 11 6 35 19 W 39 0,0
20.06.2018 07:00:00 8,9 -2,1 13 7 35 19 WNW 49 0,0
20.06.2018 06:00:00 7,9 -2,2 11 6 21 11 W 50 0,0
20.06.2018 05:00:00 4,0 -2,0 0 0 18 10 N 50 0,0
20.06.2018 04:00:00 2,5 -2,0 4 2 23 13 W 50 0,0
20.06.2018 03:00:00 6,4 -3,0 7 4 23 13 WNW 50 0,0
20.06.2018 02:00:00 4,3 -1,5 7 4 27 15 W 50 0,0
20.06.2018 01:00:00 7,6 -2,2 10 5 33 18 W 50 0,0
20.06.2018 00:00:00 8,0 -1,3 12 7 40 22 W 50 0,0
19.06.2018 23:00:00 9,2 -1,5 16 9 40 22 W 50 0,0
19.06.2018 22:00:00 12,1 -0,1 17 9 40 22 W 50 0,0
19.06.2018 21:00:00 14,3 -0,6 16 8 39 21 W 50 0,0
19.06.2018 20:00:00 13,5 3,8 13 7 47 25 W 50 0,0
19.06.2018 19:00:00 12,7 3,6 20 11 56 30 W 50 0,0
19.06.2018 18:00:00 14,8 3,0 22 12 56 30 WSW 46 0,0
19.06.2018 17:00:00 15,2 3,0 22 12 49 26 WSW 48 0,2
19.06.2018 16:00:00 13,8 4,7 16 9 46 25 W 28 0,0
19.06.2018 15:00:00 16,4 3,1 18 10 46 25 WSW 46 0,0
19.06.2018 14:00:00 14,9 3,4 16 9 46 25 W 40 0,0
19.06.2018 13:00:00 14,7 2,2 22 12 50 27 WSW 41 0,0
19.06.2018 12:00:00 14,4 0,6 18 10 50 27 W 40 0,0
19.06.2018 11:00:00 13,9 1,2 29 16 54 29 W 35 0,0
19.06.2018 10:00:00 12,4 3,6 17 9 54 29 W 43 0,0
19.06.2018 09:00:00 12,2 5,1 26 14 46 25 W 46 0,0
19.06.2018 08:00:00 11,5 5,6 12 7 31 17 WSW 48 0,0
19.06.2018 07:00:00 11,0 5,7 16 9 29 16 W 49 0,0
19.06.2018 06:00:00 9,3 7,4 10 5 20 11 WSW 50 0,0
19.06.2018 05:00:00 9,2 8,3 3 2 16 9 NW 50 1,7
19.06.2018 04:00:00 10,5 9,5 7 4 15 8 SW 6 1,4
19.06.2018 03:00:00 10,4 9,1 0 0 16 9 N 50 0,0
19.06.2018 02:00:00 10,8 9,2 5 3 27 15 SSW 29 0,0
19.06.2018 01:00:00 11,2 8,9 7 4 29 15 SSW 50 0,0
19.06.2018 00:00:00 10,9 8,5 8 4 30 16 SSW 50 0,0
18.06.2018 23:00:00 11,1 8,3 8 4 30 16 SSW 50 0,0
18.06.2018 22:00:00 11,7 8,0 13 7 31 17 SW 50 0,0
18.06.2018 21:00:00 12,5 7,8 13 7 35 19 SSW 50 0,0
18.06.2018 20:00:00 13,9 7,2 11 6 35 19 SW 50 0,0
18.06.2018 19:00:00 14,1 7,2 14 7 35 19 SW 50 0,0
18.06.2018 18:00:00 14,2 7,3 14 8 40 22 SW 50 0,0
18.06.2018 17:00:00 15,5 6,2 16 9 40 22 WSW 43 0,0
18.06.2018 16:00:00 16,6 5,5 18 10 36 19 SW 42 0,0
18.06.2018 15:00:00 15,1 7,1 11 6 37 20 SW 50 0,0
18.06.2018 14:00:00 15,1 8,3 12 7 37 20 SSW 40 0,0
18.06.2018 13:00:00 15,2 8,2 17 9 34 18 SSW 35 0,0
18.06.2018 12:00:00 15,6 9,5 10 5 29 15 SSW 41 0,0
18.06.2018 11:00:00 13,1 8,4 11 6 27 15 SW 50 0,0
18.06.2018 10:00:00 12,6 8,5 9 5 21 11 SW 50 0,0
18.06.2018 09:00:00 13,4 9,6 8 4 17 9 W 45 0,0
18.06.2018 08:00:00 11,3 9,2 10 6 17 9 W 50 0,0
18.06.2018 07:00:00 10,2 9,0 4 2 13 7 W 50 0,0
18.06.2018 06:00:00 8,6 8,0 3 2 8 5 W 50 0,0
18.06.2018 05:00:00 8,3 8,0 4 2 8 5 W 9 0,1
18.06.2018 04:00:00 8,1 7,8 3 2 6 3 W 9 0,3
18.06.2018 03:00:00 8,0 7,7 0 0 5 3 N 6 1,0
18.06.2018 02:00:00 8,0 7,7 0 0 10 5 N 5 0,9
18.06.2018 01:00:00 8,4 8,0 0 0 13 7 N 12 0,9
18.06.2018 00:00:00 8,4 8,0 8 4 15 8 E 15 0,8
17.06.2018 23:00:00 8,6 8,2 8 4 15 8 E 10 0,7
17.06.2018 22:00:00 8,9 8,4 4 2 19 11 E 9 1,5
17.06.2018 21:00:00 8,9 8,4 4 2 19 11 E 9 1,5
17.06.2018 20:00:00 9,4 8,9 6 3 18 10 ESE 11 1,3
17.06.2018 19:00:00 9,7 9,2 6 3 19 10 E 7 1,7
17.06.2018 18:00:00 9,8 8,4 9 5 24 13 SE 18 1,2
17.06.2018 17:00:00 9,8 9,2 8 5 24 13 ESE 3,6 0,8
17.06.2018 16:00:00 11,4 9,8 11 6 23 12 SE 30 0,2
17.06.2018 15:00:00 11,0 9,8 8 4 23 12 SE 21 0,1
17.06.2018 14:00:00 10,4 9,5 10 5 23 12 SE 6 0,0
17.06.2018 13:00:00 10,5 9,3 9 5 25 14 SE 29 0,0
17.06.2018 12:00:00 9,3 8,5 9 5 25 14 E 17 0,1
17.06.2018 11:00:00 9,0 7,9 13 7 23 12 E 42 0,0
17.06.2018 10:00:00 9,1 7,9 9 5 15 8 E 32 0,4
17.06.2018 09:00:00 8,8 8,0 4 2 7 4 ESE 13 1,0
17.06.2018 08:00:00 8,8 7,7 2 1 6 3 E 24 0,2
17.06.2018 07:00:00 8,3 6,6 0 0 4 2 N 47 0,1
17.06.2018 06:00:00 6,0 5,4 0 0 6 3 N 37 0,0
17.06.2018 05:00:00 4,8 4,4 2 1 7 4 W 50 0,0
17.06.2018 04:00:00 3,2 2,6 3 2 7 4 W 41 0,0
17.06.2018 03:00:00 4,1 3,4 6 3 8 4 W 50 0,0
17.06.2018 02:00:00 5,2 4,0 0 0 8 4 N 50 0,0
17.06.2018 01:00:00 6,6 4,9 6 3 9 5 W 50 0,0
17.06.2018 00:00:00 8,9 6,0 2 1 9 5 NW 50 0,0
16.06.2018 23:00:00 8,7 5,6 0 0 6 4 N 50 0,0
16.06.2018 22:00:00 10,3 4,4 3 1 14 8 ENE 50 0,0
16.06.2018 21:00:00 13,4 3,7 4 2 14 8 SW 50 0,0
16.06.2018 20:00:00 16,3 2,3 6 4 17 9 SW 50 0,0
16.06.2018 19:00:00 18,0 0,6 7 4 17 9 WSW 48 0,0
16.06.2018 18:00:00 18,0 -0,8 3 2 20 11 SSW 46 0,0
16.06.2018 17:00:00 17,3 -0,4 6 3 20 11 W 50 0,0
16.06.2018 16:00:00 16,7 1,6 7 4 29 16 W 47 0,0
16.06.2018 15:00:00 16,0 0,1 9 5 29 16 WSW 49 0,0
16.06.2018 14:00:00 17,2 0,8 12 6 29 16 S 38 0,0
16.06.2018 13:00:00 16,8 1,6 9 5 23 13 S 44 0,0
16.06.2018 12:00:00 16,4 2,4 9 5 23 13 SW 41 0,0
16.06.2018 11:00:00 14,6 2,2 5 3 19 10 SSW 44 0,0
16.06.2018 10:00:00 13,9 4,7 9 5 19 10 W 42 0,0
16.06.2018 09:00:00 12,2 5,1 5 3 21 12 WSW 44 0,0
16.06.2018 08:00:00 10,3 5,7 7 4 21 12 SW 44 0,0
16.06.2018 07:00:00 8,9 5,5 6 3 11 6 SW 37 0,0
16.06.2018 06:00:00 8,5 5,4 2 1 14 7 SW 39 0,0
16.06.2018 05:00:00 7,1 4,6 3 2 14 7 WSW 47 0,0
16.06.2018 04:00:00 5,1 3,6 6 4 11 6 SW 47 0,0
16.06.2018 03:00:00 6,9 4,2 0 0 12 7 N 49 0,0
16.06.2018 02:00:00 6,6 3,7 3 1 32 17 NNE 50 0,0
16.06.2018 01:00:00 8,2 3,6 9 5 32 17 SSW 50 0,0
16.06.2018 00:00:00 8,9 3,1 8 5 21 12 SW 50 0,0
15.06.2018 23:00:00 10,4 1,0 6 4 27 15 SW 50 0,0
15.06.2018 22:00:00 12,3 0,7 7 4 41 22 SW 50 0,0
15.06.2018 21:00:00 13,9 0,2 16 9 48 26 SW 50 0,0
15.06.2018 20:00:00 14,7 -0,2 25 13 48 26 SW 49 0,0
15.06.2018 19:00:00 15,2 -0,2 20 11 54 29 SW 50 0,0
15.06.2018 18:00:00 14,7 -0,2 21 11 54 29 SW 50 0,0
15.06.2018 17:00:00 15,5 -0,3 22 12 52 28 SW 43 0,0

tt = Température de l'air
td = dewpoint
ff = Vitesse du vent
fx = gusts
dd = Direction du vent
vv = visibility
rr = Quantités de précipitations

stations d'obs. à proximité